createdAt,value
2024-01-06T00:00:51.652Z,998.84
2024-01-06T00:01:51.670Z,998.81
2024-01-06T00:02:51.710Z,998.86
2024-01-06T00:03:52.111Z,998.83
2024-01-06T00:04:51.698Z,998.89
2024-01-06T00:05:51.747Z,998.85
2024-01-06T00:06:51.792Z,998.84
2024-01-06T00:07:51.753Z,998.89
2024-01-06T00:08:51.795Z,998.89
2024-01-06T00:09:51.894Z,998.89
2024-01-06T00:10:52.141Z,998.87
2024-01-06T00:11:51.885Z,998.89
2024-01-06T00:12:51.975Z,998.94
2024-01-06T00:13:51.974Z,998.95
2024-01-06T00:14:51.971Z,998.97
2024-01-06T00:15:52.090Z,998.96
2024-01-06T00:16:52.000Z,998.97
2024-01-06T00:17:52.186Z,998.96
2024-01-06T00:18:52.195Z,998.99
2024-01-06T00:19:52.355Z,998.97
2024-01-06T00:20:52.108Z,998.97
2024-01-06T00:21:52.198Z,998.95
2024-01-06T00:22:52.307Z,998.97
2024-01-06T00:23:52.489Z,998.99
2024-01-06T00:24:52.244Z,998.98
2024-01-06T00:25:52.272Z,998.99
2024-01-06T00:26:52.288Z,998.96
2024-01-06T00:27:52.372Z,998.98
2024-01-06T00:28:52.327Z,999.00
2024-01-06T00:29:52.373Z,998.99
2024-01-06T00:30:52.758Z,999.00
2024-01-06T00:31:52.441Z,999.03
2024-01-06T00:32:52.449Z,999.04
2024-01-06T00:33:52.510Z,999.09
2024-01-06T00:34:52.544Z,999.07
2024-01-06T00:35:52.517Z,999.06
2024-01-06T00:36:52.594Z,999.07
2024-01-06T00:37:54.988Z,999.05
2024-01-06T00:38:52.594Z,999.07
2024-01-06T00:39:52.666Z,999.07
2024-01-06T00:40:52.659Z,999.04
2024-01-06T00:41:52.682Z,999.10
2024-01-06T00:42:52.781Z,999.10
2024-01-06T00:43:52.736Z,999.10
2024-01-06T00:44:53.063Z,999.09
2024-01-06T00:45:52.935Z,999.10
2024-01-06T00:46:52.821Z,999.11
2024-01-06T00:47:52.900Z,999.14
2024-01-06T00:48:52.981Z,999.15
2024-01-06T00:49:52.904Z,999.20
2024-01-06T00:50:52.934Z,999.14
2024-01-06T00:51:53.293Z,999.21
2024-01-06T00:52:53.005Z,999.21
2024-01-06T00:53:53.130Z,999.21
2024-01-06T00:54:53.078Z,999.22
2024-01-06T00:55:53.063Z,999.24
2024-01-06T00:56:55.412Z,999.23
2024-01-06T00:57:53.454Z,999.22
2024-01-06T00:58:53.138Z,999.25
2024-01-06T00:59:53.165Z,999.29
2024-01-06T01:00:53.262Z,999.28
2024-01-06T01:01:53.228Z,999.23
2024-01-06T01:02:53.274Z,999.30
2024-01-06T01:03:53.713Z,999.18
2024-01-06T01:04:53.363Z,999.22
2024-01-06T01:05:53.409Z,999.24
2024-01-06T01:06:53.442Z,999.21
2024-01-06T01:07:53.417Z,999.20
2024-01-06T01:08:53.470Z,999.24
2024-01-06T01:09:53.814Z,999.19
2024-01-06T01:10:53.473Z,999.17
2024-01-06T01:12:53.545Z,999.18
2024-01-06T01:13:53.594Z,999.18
2024-01-06T01:15:53.644Z,999.17
2024-01-06T01:16:54.623Z,999.21
2024-01-06T01:17:53.725Z,999.18
2024-01-06T01:18:53.800Z,999.20
2024-01-06T01:19:53.846Z,999.18
2024-01-06T01:20:53.741Z,999.22
2024-01-06T01:21:53.813Z,999.25
2024-01-06T01:22:53.796Z,999.22
2024-01-06T01:23:54.143Z,999.27
2024-01-06T01:24:54.171Z,999.31
2024-01-06T01:25:53.990Z,999.29
2024-01-06T01:26:53.927Z,999.32
2024-01-06T01:27:53.982Z,999.34
2024-01-06T01:28:54.004Z,999.39
2024-01-06T01:29:54.277Z,999.40
2024-01-06T01:30:54.399Z,999.37
2024-01-06T01:31:54.208Z,999.38
2024-01-06T01:32:54.252Z,999.41
2024-01-06T01:33:54.268Z,999.41
2024-01-06T01:34:54.178Z,999.39
2024-01-06T01:35:54.150Z,999.41
2024-01-06T01:36:54.179Z,999.40
2024-01-06T01:37:54.523Z,999.39
2024-01-06T01:38:54.241Z,999.44
2024-01-06T01:39:54.261Z,999.44
2024-01-06T01:40:54.290Z,999.46
2024-01-06T01:41:54.352Z,999.45
2024-01-06T01:42:54.347Z,999.47
2024-01-06T01:43:54.381Z,999.48
2024-01-06T01:44:54.713Z,999.50
2024-01-06T01:45:54.571Z,999.52
2024-01-06T01:46:54.472Z,999.51
2024-01-06T01:48:54.604Z,999.56
2024-01-06T01:49:54.575Z,999.56
2024-01-06T01:50:54.600Z,999.60
2024-01-06T01:51:54.975Z,999.61
2024-01-06T01:52:54.630Z,999.58
2024-01-06T01:53:54.690Z,999.59
2024-01-06T01:54:54.740Z,999.53
2024-01-06T01:55:54.718Z,999.59
2024-01-06T01:56:54.732Z,999.54
2024-01-06T01:57:54.833Z,999.56
2024-01-06T01:58:55.089Z,999.54
2024-01-06T01:59:54.834Z,999.53
2024-01-06T02:01:54.888Z,999.56
2024-01-06T02:02:54.972Z,999.55
2024-01-06T02:03:54.991Z,999.57
2024-01-06T02:04:54.969Z,999.58
2024-01-06T02:06:55.078Z,999.59
2024-01-06T02:07:55.037Z,999.59
2024-01-06T02:08:55.062Z,999.59
2024-01-06T02:09:55.168Z,999.59
2024-01-06T02:10:55.125Z,999.61
2024-01-06T02:11:55.149Z,999.63
2024-01-06T02:12:55.497Z,999.62
2024-01-06T02:13:55.239Z,999.66
2024-01-06T02:14:55.317Z,999.65
2024-01-06T02:15:55.565Z,999.66
2024-01-06T02:16:55.283Z,999.69
2024-01-06T02:17:55.406Z,999.66
2024-01-06T02:18:55.409Z,999.67
2024-01-06T02:19:55.760Z,999.67
2024-01-06T02:20:55.396Z,999.64
2024-01-06T02:21:55.459Z,999.65
2024-01-06T02:22:55.459Z,999.68
2024-01-06T02:23:55.499Z,999.68
2024-01-06T02:24:55.538Z,999.68
2024-01-06T02:25:55.532Z,999.75
2024-01-06T02:26:55.817Z,999.71
2024-01-06T02:27:55.657Z,999.76
2024-01-06T02:28:55.622Z,999.76
2024-01-06T02:29:55.661Z,999.76
2024-01-06T02:30:55.745Z,999.76
2024-01-06T02:31:55.703Z,999.77
2024-01-06T02:32:55.840Z,999.78
2024-01-06T02:33:56.191Z,999.76
2024-01-06T02:34:55.888Z,999.79
2024-01-06T02:35:55.802Z,999.80
2024-01-06T02:36:55.878Z,999.79
2024-01-06T02:37:55.857Z,999.83
2024-01-06T02:38:55.900Z,999.82
2024-01-06T02:39:55.965Z,999.80
2024-01-06T02:40:56.256Z,999.80
2024-01-06T02:41:55.972Z,999.78
2024-01-06T02:42:56.024Z,999.83
2024-01-06T02:43:56.052Z,999.82
2024-01-06T02:44:56.059Z,999.84
2024-01-06T02:45:56.139Z,999.84
2024-01-06T02:46:56.161Z,999.86
2024-01-06T02:47:56.492Z,999.85
2024-01-06T02:48:56.428Z,999.86
2024-01-06T02:49:56.290Z,999.89
2024-01-06T02:50:56.520Z,999.88
2024-01-06T02:51:56.293Z,999.90
2024-01-06T02:52:56.280Z,999.92
2024-01-06T02:53:56.609Z,999.94
2024-01-06T02:54:56.370Z,999.95
2024-01-06T02:55:56.369Z,999.97
2024-01-06T02:56:56.392Z,999.97
2024-01-06T02:57:56.446Z,1000.01
2024-01-06T02:58:56.450Z,999.99
2024-01-06T02:59:56.770Z,1000.01
2024-01-06T03:00:56.671Z,1000.03
2024-01-06T03:01:56.552Z,1000.04
2024-01-06T03:02:56.574Z,1000.05
2024-01-06T03:03:56.720Z,1000.10
2024-01-06T03:04:56.605Z,1000.07
2024-01-06T03:05:57.013Z,1000.09
2024-01-06T03:06:56.727Z,1000.09
2024-01-06T03:07:56.691Z,1000.10
2024-01-06T03:08:56.719Z,1000.11
2024-01-06T03:09:56.801Z,1000.12
2024-01-06T03:10:56.776Z,1000.14
2024-01-06T03:11:57.488Z,1000.16
2024-01-06T03:12:57.249Z,1000.18
2024-01-06T03:13:56.857Z,1000.17
2024-01-06T03:14:56.888Z,1000.17
2024-01-06T03:15:57.001Z,1000.23
2024-01-06T03:16:56.935Z,1000.24
2024-01-06T03:17:57.081Z,1000.23
2024-01-06T03:18:57.088Z,1000.25
2024-01-06T03:19:57.387Z,1000.26
2024-01-06T03:20:57.048Z,1000.28
2024-01-06T03:21:57.137Z,1000.30
2024-01-06T03:22:57.128Z,1000.29
2024-01-06T03:23:57.154Z,1000.29
2024-01-06T03:24:57.198Z,1000.31
2024-01-06T03:25:57.204Z,1000.32
2024-01-06T03:27:57.251Z,1000.30
2024-01-06T03:28:57.296Z,1000.32
2024-01-06T03:29:57.312Z,1000.33
2024-01-06T03:30:57.393Z,1000.31
2024-01-06T03:31:57.374Z,1000.33
2024-01-06T03:32:57.470Z,1000.33
2024-01-06T03:33:57.843Z,1000.35
2024-01-06T03:34:57.492Z,1000.33
2024-01-06T03:35:57.471Z,1000.38
2024-01-06T03:36:57.572Z,1000.39
2024-01-06T03:38:57.565Z,1000.36
2024-01-06T03:40:57.611Z,1000.39
2024-01-06T03:41:57.956Z,1000.43
2024-01-06T03:42:57.690Z,1000.41
2024-01-06T03:43:57.710Z,1000.42
2024-01-06T03:44:57.838Z,1000.40
2024-01-06T03:45:57.800Z,1000.41
2024-01-06T03:46:57.783Z,1000.46
2024-01-06T03:47:57.920Z,1000.43
2024-01-06T03:48:58.200Z,1000.47
2024-01-06T03:49:57.925Z,1000.45
2024-01-06T03:50:57.949Z,1000.46
2024-01-06T03:51:58.024Z,1000.43
2024-01-06T03:52:57.952Z,1000.44
2024-01-06T03:53:57.969Z,1000.47
2024-01-06T03:54:58.117Z,1000.45
2024-01-06T03:55:58.283Z,1000.45
2024-01-06T03:56:58.062Z,1000.50
2024-01-06T03:57:58.149Z,1000.47
2024-01-06T03:58:58.116Z,1000.44
2024-01-06T03:59:58.135Z,1000.47
2024-01-06T04:00:58.229Z,1000.49
2024-01-06T04:01:58.197Z,1000.43
2024-01-06T04:02:58.525Z,1000.43
2024-01-06T04:03:58.327Z,1000.45
2024-01-06T04:04:58.290Z,1000.47
2024-01-06T04:05:58.380Z,1000.50
2024-01-06T04:06:58.356Z,1000.50
2024-01-06T04:07:58.361Z,1000.49
2024-01-06T04:08:58.397Z,1000.47
2024-01-06T04:09:58.831Z,1000.44
2024-01-06T04:10:58.452Z,1000.48
2024-01-06T04:11:58.487Z,1000.49
2024-01-06T04:12:58.646Z,1000.46
2024-01-06T04:13:58.578Z,1000.51
2024-01-06T04:14:58.567Z,1000.49
2024-01-06T04:16:58.624Z,1000.50
2024-01-06T04:17:59.006Z,1000.51
2024-01-06T04:18:58.808Z,1000.50
2024-01-06T04:19:58.726Z,1000.53
2024-01-06T04:20:58.724Z,1000.53
2024-01-06T04:21:58.858Z,1000.54
2024-01-06T04:22:58.785Z,1000.56
2024-01-06T04:23:58.808Z,1000.56
2024-01-06T04:24:59.263Z,1000.58
2024-01-06T04:25:58.874Z,1000.63
2024-01-06T04:26:58.886Z,1000.67
2024-01-06T04:27:58.995Z,1000.69
2024-01-06T04:28:58.947Z,1000.68
2024-01-06T04:29:58.978Z,1000.70
2024-01-06T04:30:59.084Z,1000.73
2024-01-06T04:31:59.323Z,1000.75
2024-01-06T04:32:59.196Z,1000.74
2024-01-06T04:33:59.210Z,1000.75
2024-01-06T04:34:59.105Z,1000.74
2024-01-06T04:35:59.146Z,1000.77
2024-01-06T04:36:59.209Z,1000.77
2024-01-06T04:37:59.213Z,1000.74
2024-01-06T04:38:59.216Z,1000.76
2024-01-06T04:39:59.299Z,1000.73
2024-01-06T04:40:59.273Z,1000.75
2024-01-06T04:41:59.302Z,1000.78
2024-01-06T04:42:59.398Z,1000.79
2024-01-06T04:43:59.351Z,1000.77
2024-01-06T04:44:59.689Z,1000.81
2024-01-06T04:45:59.457Z,1000.79
2024-01-06T04:46:59.434Z,1000.80
2024-01-06T04:47:59.610Z,1000.81
2024-01-06T04:48:59.610Z,1000.83
2024-01-06T04:49:59.601Z,1000.83
2024-01-06T04:50:59.546Z,1000.87
2024-01-06T04:51:59.901Z,1000.86
2024-01-06T04:52:59.600Z,1000.89
2024-01-06T04:53:59.652Z,1000.90
2024-01-06T04:54:59.671Z,1000.95
2024-01-06T04:55:59.693Z,1000.94
2024-01-06T04:56:59.723Z,1000.94
2024-01-06T04:57:59.744Z,1000.94
2024-01-06T04:59:00.089Z,1001.01
2024-01-06T04:59:59.794Z,1001.02
2024-01-06T05:00:59.999Z,1000.97
2024-01-06T05:01:59.864Z,1000.99
2024-01-06T05:02:59.925Z,1001.03
2024-01-06T05:04:00.045Z,1001.00
2024-01-06T05:04:59.963Z,1001.01
2024-01-06T05:07:00.036Z,1001.06
2024-01-06T05:08:00.033Z,1001.05
2024-01-06T05:09:00.057Z,1001.08
2024-01-06T05:11:00.161Z,1001.10
2024-01-06T05:12:00.162Z,1001.09
2024-01-06T05:13:00.461Z,1001.12
2024-01-06T05:14:00.206Z,1001.11
2024-01-06T05:15:00.270Z,1001.14
2024-01-06T05:16:00.318Z,1001.17
2024-01-06T05:17:00.282Z,1001.21
2024-01-06T05:18:00.397Z,1001.21
2024-01-06T05:19:00.752Z,1001.23
2024-01-06T05:20:00.368Z,1001.25
2024-01-06T05:21:00.412Z,1001.31
2024-01-06T05:22:00.412Z,1001.31
2024-01-06T05:23:00.434Z,1001.35
2024-01-06T05:24:00.484Z,1001.32
2024-01-06T05:25:00.745Z,1001.33
2024-01-06T05:26:00.556Z,1001.31
2024-01-06T05:27:00.575Z,1001.29
2024-01-06T05:28:00.681Z,1001.33
2024-01-06T05:29:00.600Z,1001.36
2024-01-06T05:30:00.638Z,1001.36
2024-01-06T05:31:01.067Z,1001.37
2024-01-06T05:32:00.682Z,1001.38
2024-01-06T05:33:00.760Z,1001.40
2024-01-06T05:34:00.823Z,1001.39
2024-01-06T05:35:00.951Z,1001.46
2024-01-06T05:36:00.802Z,1001.42
2024-01-06T05:37:00.830Z,1001.43
2024-01-06T05:38:01.152Z,1001.45
2024-01-06T05:39:00.891Z,1001.48
2024-01-06T05:42:00.965Z,1001.50
2024-01-06T05:43:01.101Z,1001.53
2024-01-06T05:44:01.032Z,1001.51
2024-01-06T05:45:01.409Z,1001.57
2024-01-06T05:46:01.116Z,1001.56
2024-01-06T05:47:01.123Z,1001.59
2024-01-06T05:48:01.380Z,1001.57
2024-01-06T05:49:01.309Z,1001.60
2024-01-06T05:50:01.183Z,1001.65
2024-01-06T05:51:01.220Z,1001.69
2024-01-06T05:52:01.239Z,1001.69
2024-01-06T05:53:01.275Z,1001.74
2024-01-06T05:54:01.301Z,1001.74
2024-01-06T05:55:01.425Z,1001.78
2024-01-06T05:57:01.402Z,1001.78
2024-01-06T05:58:01.437Z,1001.81
2024-01-06T05:59:01.463Z,1001.83
2024-01-06T06:00:01.467Z,1001.85
2024-01-06T06:01:01.654Z,1001.83
2024-01-06T06:02:01.543Z,1001.85
2024-01-06T06:03:01.551Z,1001.86
2024-01-06T06:04:02.021Z,1001.88
2024-01-06T06:06:01.645Z,1001.91
2024-01-06T06:07:02.688Z,1001.90
2024-01-06T06:08:01.688Z,1001.92
2024-01-06T06:09:01.712Z,1001.94
2024-01-06T06:10:01.864Z,1001.93
2024-01-06T06:11:02.223Z,1001.93
2024-01-06T06:12:01.790Z,1001.93
2024-01-06T06:13:01.821Z,1001.93
2024-01-06T06:14:01.854Z,1001.93
2024-01-06T06:15:01.942Z,1001.92
2024-01-06T06:16:01.897Z,1001.98
2024-01-06T06:17:02.291Z,1002.02
2024-01-06T06:18:02.062Z,1002.01
2024-01-06T06:19:02.038Z,1002.02
2024-01-06T06:20:02.069Z,1002.05
2024-01-06T06:21:02.135Z,1002.10
2024-01-06T06:22:02.096Z,1002.09
2024-01-06T06:23:02.436Z,1002.11
2024-01-06T06:24:02.152Z,1002.14
2024-01-06T06:25:02.149Z,1002.15
2024-01-06T06:26:02.285Z,1002.19
2024-01-06T06:27:02.333Z,1002.23
2024-01-06T06:28:02.376Z,1002.25
2024-01-06T06:30:02.472Z,1002.30
2024-01-06T06:31:02.537Z,1002.29
2024-01-06T06:32:02.349Z,1002.25
2024-01-06T06:33:02.564Z,1002.25
2024-01-06T06:34:05.271Z,1002.28
2024-01-06T06:35:02.473Z,1002.26
2024-01-06T06:36:02.754Z,1002.24
2024-01-06T06:37:02.481Z,1002.29
2024-01-06T06:38:02.509Z,1002.29
2024-01-06T06:39:02.544Z,1002.30
2024-01-06T06:40:02.562Z,1002.33
2024-01-06T06:41:02.721Z,1002.40
2024-01-06T06:42:02.623Z,1002.37
2024-01-06T06:43:02.641Z,1002.40
2024-01-06T06:44:02.667Z,1002.41
2024-01-06T06:45:02.709Z,1002.43
2024-01-06T06:46:02.770Z,1002.43
2024-01-06T06:47:02.783Z,1002.47
2024-01-06T06:48:02.797Z,1002.46
2024-01-06T06:49:03.206Z,1002.45
2024-01-06T06:50:02.865Z,1002.47
2024-01-06T06:51:02.942Z,1002.50
2024-01-06T06:52:02.970Z,1002.54
2024-01-06T06:53:02.927Z,1002.55
2024-01-06T06:54:02.959Z,1002.50
2024-01-06T06:55:02.965Z,1002.53
2024-01-06T06:56:03.301Z,1002.56
2024-01-06T06:57:03.035Z,1002.60
2024-01-06T06:58:03.052Z,1002.62
2024-01-06T06:59:03.161Z,1002.59
2024-01-06T07:00:03.109Z,1002.66
2024-01-06T07:01:03.310Z,1002.68
2024-01-06T07:02:03.256Z,1002.70
2024-01-06T07:03:03.621Z,1002.72
2024-01-06T07:04:03.289Z,1002.75
2024-01-06T07:05:03.403Z,1002.72
2024-01-06T07:06:03.379Z,1002.76
2024-01-06T07:07:03.296Z,1002.76
2024-01-06T07:08:03.354Z,1002.83
2024-01-06T07:09:03.351Z,1002.84
2024-01-06T07:10:03.745Z,1002.85
2024-01-06T07:11:03.414Z,1002.81
2024-01-06T07:12:03.483Z,1002.87
2024-01-06T07:13:03.469Z,1002.86
2024-01-06T07:14:03.552Z,1002.90
2024-01-06T07:15:06.308Z,1002.93
2024-01-06T07:16:12.028Z,1002.93
2024-01-06T07:17:03.824Z,1002.95
2024-01-06T07:18:03.876Z,1002.95
2024-01-06T07:19:03.845Z,1002.98
2024-01-06T07:20:03.731Z,1003.03
2024-01-06T07:21:03.731Z,1003.01
2024-01-06T07:22:07.050Z,1003.02
2024-01-06T07:23:03.735Z,1003.03
2024-01-06T07:24:04.017Z,1003.07
2024-01-06T07:25:03.848Z,1003.10
2024-01-06T07:26:03.913Z,1003.11
2024-01-06T07:27:03.875Z,1003.14
2024-01-06T07:28:03.926Z,1003.12
2024-01-06T07:29:03.902Z,1003.17
2024-01-06T07:30:04.120Z,1003.17
2024-01-06T07:31:04.358Z,1003.21
2024-01-06T07:32:04.057Z,1003.21
2024-01-06T07:33:04.085Z,1003.25
2024-01-06T07:34:04.170Z,1003.25
2024-01-06T07:35:07.217Z,1003.23
2024-01-06T07:36:04.102Z,1003.26
2024-01-06T07:37:04.174Z,1003.24
2024-01-06T07:38:04.161Z,1003.27
2024-01-06T07:39:04.192Z,1003.30
2024-01-06T07:40:04.199Z,1003.32
2024-01-06T07:41:04.234Z,1003.33
2024-01-06T07:43:04.282Z,1003.34
2024-01-06T07:44:04.616Z,1003.39
2024-01-06T07:45:04.349Z,1003.40
2024-01-06T07:46:04.389Z,1003.44
2024-01-06T07:47:04.697Z,1003.42
2024-01-06T07:48:04.476Z,1003.40
2024-01-06T07:49:04.563Z,1003.43
2024-01-06T07:50:04.505Z,1003.43
2024-01-06T07:51:04.539Z,1003.44
2024-01-06T07:52:04.544Z,1003.48
2024-01-06T07:53:04.959Z,1003.49
2024-01-06T07:54:04.585Z,1003.49
2024-01-06T07:55:04.617Z,1003.52
2024-01-06T07:56:05.030Z,1003.51
2024-01-06T07:57:04.663Z,1003.53
2024-01-06T07:58:04.808Z,1003.57
2024-01-06T07:59:04.777Z,1003.58
2024-01-06T08:00:06.345Z,1003.59
2024-01-06T08:01:04.937Z,1003.61
2024-01-06T08:03:04.827Z,1003.61
2024-01-06T08:04:05.230Z,1003.69
2024-01-06T08:05:04.888Z,1003.67
2024-01-06T08:06:05.003Z,1003.72
2024-01-06T08:07:05.068Z,1003.75
2024-01-06T08:08:04.966Z,1003.77
2024-01-06T08:09:05.006Z,1003.79
2024-01-06T08:10:05.075Z,1003.79
2024-01-06T08:11:05.317Z,1003.86
2024-01-06T08:12:05.465Z,1003.82
2024-01-06T08:13:05.226Z,1003.89
2024-01-06T08:14:05.136Z,1003.92
2024-01-06T08:15:05.176Z,1003.90
2024-01-06T08:16:05.491Z,1003.95
2024-01-06T08:17:05.221Z,1003.97
2024-01-06T08:18:05.318Z,1003.93
2024-01-06T08:19:05.450Z,1003.97
2024-01-06T08:20:05.301Z,1004.02
2024-01-06T08:21:05.347Z,1004.06
2024-01-06T08:22:05.353Z,1004.03
2024-01-06T08:23:05.715Z,1004.07
2024-01-06T08:24:05.413Z,1004.09
2024-01-06T08:25:05.468Z,1004.10
2024-01-06T08:26:05.474Z,1004.13
2024-01-06T08:27:05.493Z,1004.18
2024-01-06T08:28:05.545Z,1004.17
2024-01-06T08:29:05.661Z,1004.20
2024-01-06T08:30:06.088Z,1004.22
2024-01-06T08:31:05.790Z,1004.22
2024-01-06T08:32:05.754Z,1004.22
2024-01-06T08:33:05.755Z,1004.23
2024-01-06T08:34:05.864Z,1004.25
2024-01-06T08:35:05.753Z,1004.28
2024-01-06T08:36:05.745Z,1004.28
2024-01-06T08:37:05.880Z,1004.30
2024-01-06T08:38:05.795Z,1004.31
2024-01-06T08:39:05.851Z,1004.29
2024-01-06T08:40:05.987Z,1004.32
2024-01-06T08:41:05.878Z,1004.40
2024-01-06T08:42:05.915Z,1004.40
2024-01-06T08:43:06.228Z,1004.44
2024-01-06T08:44:05.990Z,1004.43
2024-01-06T08:45:05.987Z,1004.46
2024-01-06T08:46:06.121Z,1004.50
2024-01-06T08:47:06.046Z,1004.47
2024-01-06T08:48:06.180Z,1004.53
2024-01-06T08:49:06.453Z,1004.51
2024-01-06T08:51:06.144Z,1004.55
2024-01-06T08:52:06.190Z,1004.54
2024-01-06T08:53:06.319Z,1004.56
2024-01-06T08:55:06.339Z,1004.60
2024-01-06T08:56:06.583Z,1004.64
2024-01-06T08:57:06.317Z,1004.62
2024-01-06T08:58:06.338Z,1004.66
2024-01-06T08:59:06.376Z,1004.65
2024-01-06T09:00:06.404Z,1004.71
2024-01-06T09:01:06.544Z,1004.66
2024-01-06T09:02:06.844Z,1004.69
2024-01-06T09:03:06.511Z,1004.70
2024-01-06T09:04:06.630Z,1004.71
2024-01-06T09:05:06.566Z,1004.74
2024-01-06T09:06:06.559Z,1004.73
2024-01-06T09:07:06.632Z,1004.73
2024-01-06T09:08:06.913Z,1004.74
2024-01-06T09:09:06.640Z,1004.75
2024-01-06T09:11:06.734Z,1004.77
2024-01-06T09:12:06.727Z,1004.79
2024-01-06T09:13:06.746Z,1004.80
2024-01-06T09:14:06.774Z,1004.80
2024-01-06T09:15:07.098Z,1004.83
2024-01-06T09:16:06.920Z,1004.88
2024-01-06T09:17:06.876Z,1004.86
2024-01-06T09:18:06.943Z,1004.88
2024-01-06T09:19:07.040Z,1004.87
2024-01-06T09:20:06.949Z,1004.91
2024-01-06T09:21:06.965Z,1004.93
2024-01-06T09:22:07.240Z,1004.94
2024-01-06T09:23:07.026Z,1004.98
2024-01-06T09:24:07.041Z,1004.97
2024-01-06T09:25:07.089Z,1004.99
2024-01-06T09:26:07.164Z,1005.04
2024-01-06T09:27:07.153Z,1005.03
2024-01-06T09:28:07.195Z,1005.09
2024-01-06T09:29:07.430Z,1005.08
2024-01-06T09:30:07.349Z,1005.08
2024-01-06T09:31:07.378Z,1005.12
2024-01-06T09:32:07.266Z,1005.18
2024-01-06T09:33:07.389Z,1005.16
2024-01-06T09:34:07.423Z,1005.18
2024-01-06T09:36:07.646Z,1005.24
2024-01-06T09:38:07.434Z,1005.23
2024-01-06T09:39:07.461Z,1005.22
2024-01-06T09:40:07.514Z,1005.25
2024-01-06T09:41:07.507Z,1005.27
2024-01-06T09:42:07.556Z,1005.28
2024-01-06T09:43:07.886Z,1005.32
2024-01-06T09:44:07.627Z,1005.28
2024-01-06T09:45:07.663Z,1005.33
2024-01-06T09:46:07.697Z,1005.35
2024-01-06T09:47:07.716Z,1005.36
2024-01-06T09:48:07.849Z,1005.37
2024-01-06T09:49:08.023Z,1005.36
2024-01-06T09:50:08.065Z,1005.37
2024-01-06T09:51:07.806Z,1005.42
2024-01-06T09:52:07.871Z,1005.41
2024-01-06T09:53:07.840Z,1005.40
2024-01-06T09:54:07.980Z,1005.43
2024-01-06T09:55:08.033Z,1005.47
2024-01-06T09:56:07.930Z,1005.44
2024-01-06T09:57:08.242Z,1005.49
2024-01-06T09:58:08.284Z,1005.50
2024-01-06T09:59:08.021Z,1005.50
2024-01-06T10:00:08.032Z,1005.47
2024-01-06T10:01:08.109Z,1005.50
2024-01-06T10:02:08.077Z,1005.48
2024-01-06T10:03:08.113Z,1005.50
2024-01-06T10:05:08.661Z,1005.51
2024-01-06T10:07:08.275Z,1005.50
2024-01-06T10:08:08.250Z,1005.47
2024-01-06T10:09:08.272Z,1005.53
2024-01-06T10:10:08.554Z,1005.53
2024-01-06T10:11:08.330Z,1005.55
2024-01-06T10:12:08.649Z,1005.55
2024-01-06T10:13:08.415Z,1005.56
2024-01-06T10:14:08.461Z,1005.57
2024-01-06T10:15:08.448Z,1005.55
2024-01-06T10:16:08.503Z,1005.57
2024-01-06T10:18:08.593Z,1005.60
2024-01-06T10:19:08.964Z,1005.56
2024-01-06T10:20:08.613Z,1005.61
2024-01-06T10:21:08.596Z,1005.58
2024-01-06T10:22:08.670Z,1005.61
2024-01-06T10:23:08.759Z,1005.60
2024-01-06T10:26:08.737Z,1005.62
2024-01-06T10:27:08.759Z,1005.63
2024-01-06T10:28:08.784Z,1005.62
2024-01-06T10:29:08.830Z,1005.58
2024-01-06T10:30:08.888Z,1005.64
2024-01-06T10:31:08.960Z,1005.62
2024-01-06T10:32:09.144Z,1005.59
2024-01-06T10:33:09.000Z,1005.60
2024-01-06T10:34:09.038Z,1005.62
2024-01-06T10:35:08.998Z,1005.60
2024-01-06T10:36:09.045Z,1005.67
2024-01-06T10:38:09.369Z,1005.63
2024-01-06T10:39:09.086Z,1005.66
2024-01-06T10:40:09.186Z,1005.67
2024-01-06T10:41:09.300Z,1005.66
2024-01-06T10:42:09.169Z,1005.69
2024-01-06T10:43:09.190Z,1005.72
2024-01-06T10:45:09.547Z,1005.66
2024-01-06T10:46:09.432Z,1005.67
2024-01-06T10:47:09.352Z,1005.64
2024-01-06T10:48:09.445Z,1005.69
2024-01-06T10:49:09.490Z,1005.68
2024-01-06T10:50:09.556Z,1005.65
2024-01-06T10:51:09.861Z,1005.67
2024-01-06T10:52:09.613Z,1005.69
2024-01-06T10:53:09.465Z,1005.69
2024-01-06T10:54:09.491Z,1005.68
2024-01-06T10:55:09.532Z,1005.70
2024-01-06T10:56:09.541Z,1005.65
2024-01-06T10:57:09.968Z,1005.73
2024-01-06T10:58:09.605Z,1005.69
2024-01-06T10:59:09.658Z,1005.72
2024-01-06T11:00:09.660Z,1005.71
2024-01-06T11:01:09.766Z,1005.65
2024-01-06T11:02:09.890Z,1005.68
2024-01-06T11:03:09.798Z,1005.70
2024-01-06T11:04:10.306Z,1005.65
2024-01-06T11:05:09.889Z,1005.68
2024-01-06T11:06:09.828Z,1005.66
2024-01-06T11:07:09.985Z,1005.65
2024-01-06T11:08:09.890Z,1005.65
2024-01-06T11:09:09.903Z,1005.60
2024-01-06T11:10:09.958Z,1005.64
2024-01-06T11:11:09.966Z,1005.62
2024-01-06T11:12:09.983Z,1005.66
2024-01-06T11:13:10.044Z,1005.64
2024-01-06T11:14:10.037Z,1005.67
2024-01-06T11:16:10.211Z,1005.66
2024-01-06T11:17:10.418Z,1005.68
2024-01-06T11:18:10.264Z,1005.69
2024-01-06T11:19:10.270Z,1005.72
2024-01-06T11:21:10.241Z,1005.72
2024-01-06T11:22:10.253Z,1005.73
2024-01-06T11:24:10.560Z,1005.72
2024-01-06T11:25:10.397Z,1005.73
2024-01-06T11:26:10.365Z,1005.75
2024-01-06T11:27:10.390Z,1005.71
2024-01-06T11:28:10.438Z,1005.71
2024-01-06T11:29:10.447Z,1005.71
2024-01-06T11:30:10.507Z,1005.71
2024-01-06T11:31:11.055Z,1005.76
2024-01-06T11:32:10.559Z,1005.74
2024-01-06T11:33:10.618Z,1005.74
2024-01-06T11:34:10.663Z,1005.79
2024-01-06T11:35:10.722Z,1005.74
2024-01-06T11:36:10.634Z,1005.76
2024-01-06T11:37:10.754Z,1005.77
2024-01-06T11:38:11.009Z,1005.79
2024-01-06T11:39:10.713Z,1005.78
2024-01-06T11:40:10.884Z,1005.77
2024-01-06T11:41:10.871Z,1005.80
2024-01-06T11:42:11.316Z,1005.78
2024-01-06T11:43:10.861Z,1005.81
2024-01-06T11:45:11.181Z,1005.78
2024-01-06T11:46:10.944Z,1005.77
2024-01-06T11:47:10.946Z,1005.79
2024-01-06T11:48:11.043Z,1005.78
2024-01-06T11:49:11.152Z,1005.81
2024-01-06T11:51:11.076Z,1005.79
2024-01-06T11:52:11.375Z,1005.79
2024-01-06T11:53:11.430Z,1005.80
2024-01-06T11:54:11.180Z,1005.85
2024-01-06T11:55:11.311Z,1005.81
2024-01-06T11:56:11.185Z,1005.82
2024-01-06T11:57:11.923Z,1005.82
2024-01-06T11:58:11.532Z,1005.76
2024-01-06T11:59:11.269Z,1005.82
2024-01-06T12:00:11.399Z,1005.79
2024-01-06T12:01:11.536Z,1005.81
2024-01-06T12:02:11.400Z,1005.78
2024-01-06T12:03:11.419Z,1005.79
2024-01-06T12:04:11.808Z,1005.82
2024-01-06T12:05:11.432Z,1005.81
2024-01-06T12:06:11.491Z,1005.80
2024-01-06T12:07:11.587Z,1005.79
2024-01-06T12:08:11.508Z,1005.84
2024-01-06T12:09:11.548Z,1005.85
2024-01-06T12:10:11.815Z,1005.79
2024-01-06T12:11:11.844Z,1005.84
2024-01-06T12:12:11.641Z,1005.85
2024-01-06T12:13:13.300Z,1005.86
2024-01-06T12:14:11.675Z,1005.85
2024-01-06T12:16:11.793Z,1005.86
2024-01-06T12:17:12.059Z,1005.87
2024-01-06T12:18:11.839Z,1005.89
2024-01-06T12:19:12.018Z,1005.88
2024-01-06T12:20:11.876Z,1005.87
2024-01-06T12:21:11.873Z,1005.93
2024-01-06T12:22:11.907Z,1005.90
2024-01-06T12:24:12.367Z,1005.92
2024-01-06T12:25:12.029Z,1005.91
2024-01-06T12:26:12.014Z,1005.93
2024-01-06T12:27:12.041Z,1005.94
2024-01-06T12:28:12.053Z,1005.96
2024-01-06T12:30:12.123Z,1005.97
2024-01-06T12:31:12.500Z,1005.95
2024-01-06T12:32:12.160Z,1005.93
2024-01-06T12:34:12.359Z,1006.00
2024-01-06T12:35:12.235Z,1005.93
2024-01-06T12:36:21.101Z,1005.98
2024-01-06T12:37:12.432Z,1006.00
2024-01-06T12:38:12.323Z,1005.99
2024-01-06T12:39:12.351Z,1006.02
2024-01-06T12:40:12.398Z,1005.99
2024-01-06T12:41:12.411Z,1006.02
2024-01-06T12:42:12.434Z,1006.01
2024-01-06T12:43:12.457Z,1005.99
2024-01-06T12:44:12.587Z,1006.03
2024-01-06T12:45:12.508Z,1006.05
2024-01-06T12:47:12.563Z,1006.06
2024-01-06T12:48:12.654Z,1006.08
2024-01-06T12:49:12.833Z,1006.12
2024-01-06T12:50:12.952Z,1006.13
2024-01-06T12:51:12.697Z,1006.16
2024-01-06T12:52:12.706Z,1006.10